createdAt,value
2022-08-26T00:01:53.794Z,6.38
2022-08-26T00:06:47.668Z,5.95
2022-08-26T00:09:16.084Z,6.10
2022-08-26T00:11:44.744Z,5.85
2022-08-26T00:14:13.897Z,6.05
2022-08-26T00:16:47.290Z,5.78
2022-08-26T00:19:17.136Z,5.63
2022-08-26T00:21:44.106Z,6.47
2022-08-26T00:24:10.802Z,6.35
2022-08-26T00:26:37.525Z,6.45
2022-08-26T00:29:04.154Z,6.07
2022-08-26T00:31:31.989Z,5.75
2022-08-26T00:33:58.912Z,6.38
2022-08-26T00:36:29.783Z,5.60
2022-08-26T00:38:57.432Z,5.45
2022-08-26T00:41:24.246Z,6.20
2022-08-26T00:43:51.762Z,5.47
2022-08-26T00:46:28.965Z,5.47
2022-08-26T00:49:04.071Z,6.40
2022-08-26T00:51:44.659Z,6.25
2022-08-26T00:54:12.532Z,5.97
2022-08-26T00:56:48.591Z,6.03
2022-08-26T00:59:17.665Z,6.25
2022-08-26T01:01:45.982Z,5.53
2022-08-26T01:04:15.737Z,5.85
2022-08-26T01:06:42.645Z,6.18
2022-08-26T01:09:11.224Z,5.43
2022-08-26T01:11:37.810Z,5.43
2022-08-26T01:14:05.031Z,5.72
2022-08-26T01:19:05.681Z,5.97
2022-08-26T01:21:40.594Z,7.07
2022-08-26T01:24:08.372Z,6.22
2022-08-26T01:26:42.537Z,6.80
2022-08-26T01:29:12.973Z,6.90
2022-08-26T01:31:44.103Z,7.15
2022-08-26T01:34:18.198Z,6.35
2022-08-26T01:36:51.048Z,6.75
2022-08-26T01:39:18.925Z,6.60
2022-08-26T01:41:46.680Z,6.88
2022-08-26T01:44:22.829Z,6.78
2022-08-26T01:46:50.916Z,6.15
2022-08-26T01:49:18.090Z,6.00
2022-08-26T01:51:45.884Z,6.30
2022-08-26T01:54:14.089Z,6.22
2022-08-26T01:56:40.805Z,6.47
2022-08-26T01:59:10.762Z,6.43
2022-08-26T02:01:39.219Z,6.45
2022-08-26T02:04:16.988Z,6.32
2022-08-26T02:09:11.440Z,6.20
2022-08-26T02:11:38.595Z,6.50
2022-08-26T02:14:13.759Z,7.13
2022-08-26T02:16:43.827Z,6.70
2022-08-26T02:19:17.144Z,6.70
2022-08-26T02:21:45.991Z,6.60
2022-08-26T02:24:28.198Z,6.25
2022-08-26T02:26:57.026Z,5.90
2022-08-26T02:29:34.587Z,6.70
2022-08-26T02:32:01.319Z,5.88
2022-08-26T02:34:32.918Z,7.55
2022-08-26T02:37:02.224Z,6.53
2022-08-26T02:39:30.993Z,6.45
2022-08-26T02:41:57.832Z,6.07
2022-08-26T02:44:25.809Z,6.25
2022-08-26T02:46:52.862Z,5.67
2022-08-26T02:51:49.505Z,6.45
2022-08-26T02:54:17.262Z,6.55
2022-08-26T02:56:44.834Z,6.30
2022-08-26T02:59:12.678Z,6.30
2022-08-26T03:01:40.799Z,5.93
2022-08-26T03:04:09.883Z,6.80
2022-08-26T03:06:37.499Z,6.00
2022-08-26T03:09:05.683Z,6.57
2022-08-26T03:11:33.421Z,7.03
2022-08-26T03:14:01.725Z,6.45
2022-08-26T03:16:37.262Z,6.32
2022-08-26T03:19:06.564Z,7.05
2022-08-26T03:21:34.515Z,6.13
2022-08-26T03:26:29.703Z,6.35
2022-08-26T03:29:14.847Z,6.20
2022-08-26T03:31:42.015Z,6.50
2022-08-26T03:34:09.735Z,6.38
2022-08-26T03:36:38.703Z,6.97
2022-08-26T03:39:06.049Z,6.90
2022-08-26T03:41:34.487Z,7.05
2022-08-26T03:44:01.955Z,7.32
2022-08-26T03:46:31.365Z,7.07
2022-08-26T03:48:58.549Z,7.35
2022-08-26T03:51:25.809Z,7.25
2022-08-26T03:53:53.044Z,6.65
2022-08-26T03:56:19.654Z,6.80
2022-08-26T03:58:47.324Z,6.65
2022-08-26T04:01:16.142Z,6.97
2022-08-26T04:04:00.163Z,7.38
2022-08-26T04:06:32.944Z,7.00
2022-08-26T04:09:03.039Z,6.78
2022-08-26T04:11:34.072Z,8.05
2022-08-26T04:14:03.536Z,7.00
2022-08-26T04:16:30.825Z,7.35
2022-08-26T04:18:58.029Z,7.45
2022-08-26T04:21:25.295Z,7.38
2022-08-26T04:23:53.982Z,6.65
2022-08-26T04:26:21.564Z,6.75
2022-08-26T04:28:49.669Z,7.10
2022-08-26T04:31:17.552Z,7.85
2022-08-26T04:33:47.743Z,7.00
2022-08-26T04:36:17.504Z,7.35
2022-08-26T04:38:46.619Z,7.55
2022-08-26T04:41:15.257Z,7.32
2022-08-26T04:43:42.894Z,7.30
2022-08-26T04:46:10.229Z,8.05
2022-08-26T04:48:41.201Z,7.68
2022-08-26T04:53:35.240Z,7.05
2022-08-26T04:56:02.048Z,7.32
2022-08-26T04:58:31.059Z,8.02
2022-08-26T05:00:58.532Z,7.32
2022-08-26T05:03:27.441Z,7.40
2022-08-26T05:05:58.643Z,7.72
2022-08-26T05:08:25.784Z,7.18
2022-08-26T05:10:57.247Z,7.45
2022-08-26T05:13:27.648Z,8.00
2022-08-26T05:15:55.784Z,7.50
2022-08-26T05:18:29.810Z,7.65
2022-08-26T05:20:56.489Z,7.95
2022-08-26T05:23:24.377Z,8.80
2022-08-26T05:25:57.045Z,7.72
2022-08-26T05:28:27.057Z,7.18
2022-08-26T05:33:22.033Z,8.73
2022-08-26T05:35:48.852Z,7.68
2022-08-26T05:38:17.731Z,7.20
2022-08-26T05:40:49.150Z,6.85
2022-08-26T05:43:20.321Z,6.68
2022-08-26T05:45:49.409Z,7.25
2022-08-26T05:48:18.849Z,7.38
2022-08-26T05:50:51.579Z,7.53
2022-08-26T05:53:20.798Z,7.13
2022-08-26T05:55:52.802Z,6.57
2022-08-26T05:58:21.589Z,7.68
2022-08-26T06:01:03.556Z,7.65
2022-08-26T06:03:33.979Z,8.35
2022-08-26T06:06:09.759Z,8.27
2022-08-26T06:08:37.976Z,8.85
2022-08-26T06:11:10.755Z,9.57
2022-08-26T06:13:45.387Z,8.77
2022-08-26T06:16:15.337Z,8.75
2022-08-26T06:18:45.839Z,10.55
2022-08-26T06:21:26.893Z,9.23
2022-08-26T06:24:15.033Z,10.18
2022-08-26T06:29:09.716Z,12.65
2022-08-26T06:31:36.835Z,11.52
2022-08-26T06:34:09.867Z,11.85
2022-08-26T06:36:39.381Z,9.25
2022-08-26T06:39:10.059Z,10.98
2022-08-26T06:41:41.413Z,10.05
2022-08-26T06:44:10.134Z,12.45
2022-08-26T06:46:37.495Z,12.48
2022-08-26T06:49:04.651Z,9.95
2022-08-26T06:51:34.636Z,9.32
2022-08-26T06:54:02.189Z,10.60
2022-08-26T06:56:34.504Z,9.82
2022-08-26T06:59:01.412Z,10.50
2022-08-26T07:01:31.186Z,10.32
2022-08-26T07:03:59.996Z,9.93
2022-08-26T07:06:28.234Z,10.98
2022-08-26T07:09:04.451Z,10.23
2022-08-26T07:11:32.704Z,13.15
2022-08-26T07:13:59.676Z,10.55
2022-08-26T07:16:28.305Z,10.23
2022-08-26T07:18:56.915Z,10.52
2022-08-26T07:21:24.658Z,10.50
2022-08-26T07:23:56.390Z,9.35
2022-08-26T07:26:27.253Z,11.05
2022-08-26T07:28:56.629Z,10.63
2022-08-26T07:31:26.480Z,8.52
2022-08-26T07:33:53.863Z,8.38
2022-08-26T07:36:21.757Z,8.93
2022-08-26T07:38:48.567Z,8.90
2022-08-26T07:41:17.006Z,8.85
2022-08-26T07:43:43.882Z,8.80
2022-08-26T07:46:15.844Z,8.80
2022-08-26T07:48:45.937Z,9.38
2022-08-26T07:51:15.100Z,9.70
2022-08-26T07:53:42.818Z,9.30
2022-08-26T07:56:09.512Z,10.27
2022-08-26T07:58:38.216Z,9.68
2022-08-26T08:01:05.505Z,10.02
2022-08-26T08:03:34.549Z,10.55
2022-08-26T08:06:01.161Z,10.43
2022-08-26T08:08:29.190Z,9.35
2022-08-26T08:10:57.051Z,8.40
2022-08-26T08:13:24.367Z,9.25
2022-08-26T08:15:51.140Z,9.90
2022-08-26T08:18:20.341Z,10.00
2022-08-26T08:21:04.814Z,9.07
2022-08-26T08:23:34.447Z,10.38
2022-08-26T08:26:05.478Z,9.88
2022-08-26T08:28:32.728Z,9.18
2022-08-26T08:30:59.478Z,8.90
2022-08-26T08:33:26.402Z,9.93
2022-08-26T08:35:53.069Z,8.63
2022-08-26T08:38:19.656Z,9.90
2022-08-26T08:40:46.301Z,9.52
2022-08-26T08:43:26.884Z,9.70
2022-08-26T08:45:58.463Z,10.23
2022-08-26T08:48:29.871Z,10.80
2022-08-26T08:51:04.136Z,9.48
2022-08-26T08:53:41.687Z,9.52
2022-08-26T08:56:25.045Z,8.88
2022-08-26T08:58:57.436Z,8.32
2022-08-26T09:01:45.594Z,9.40
2022-08-26T09:04:30.972Z,10.27
2022-08-26T09:07:00.401Z,11.48
2022-08-26T09:09:34.861Z,10.45
2022-08-26T09:12:02.245Z,9.70
2022-08-26T09:14:31.545Z,11.70
2022-08-26T09:17:24.908Z,11.32
2022-08-26T09:19:53.576Z,9.75
2022-08-26T09:22:36.463Z,10.95
2022-08-26T09:25:08.190Z,10.18
2022-08-26T09:27:50.528Z,10.13
2022-08-26T09:30:30.419Z,8.85
2022-08-26T09:33:03.231Z,11.00
2022-08-26T09:35:44.596Z,9.10
2022-08-26T09:38:26.923Z,12.95
2022-08-26T09:41:05.135Z,9.02
2022-08-26T09:43:32.319Z,9.27
2022-08-26T09:46:19.048Z,10.45
2022-08-26T09:48:46.197Z,11.75
2022-08-26T09:51:26.423Z,11.55
2022-08-26T09:53:57.908Z,12.93
2022-08-26T09:56:36.193Z,11.38
2022-08-26T09:59:03.791Z,13.30
2022-08-26T10:01:44.766Z,12.70
2022-08-26T10:04:14.062Z,13.95
2022-08-26T10:06:44.204Z,13.80
2022-08-26T10:09:13.919Z,12.45
2022-08-26T10:11:48.967Z,10.55
2022-08-26T10:14:26.300Z,13.23
2022-08-26T10:17:03.930Z,10.70
2022-08-26T10:19:56.655Z,13.18
2022-08-26T10:22:27.348Z,12.18
2022-08-26T10:24:56.640Z,11.50
2022-08-26T10:27:52.677Z,11.07
2022-08-26T10:30:23.687Z,9.53
2022-08-26T10:33:02.595Z,12.48
2022-08-26T10:35:31.145Z,12.75
2022-08-26T10:38:04.836Z,12.23
2022-08-26T10:40:42.471Z,9.15
2022-08-26T10:43:23.691Z,10.90
2022-08-26T10:46:06.890Z,16.30
2022-08-26T10:48:52.376Z,14.77
2022-08-26T10:51:35.609Z,17.30
2022-08-26T10:54:11.892Z,17.80
2022-08-26T10:56:57.243Z,15.82
2022-08-26T11:00:27.459Z,16.70
2022-08-26T11:02:59.459Z,19.33
2022-08-26T11:05:26.888Z,17.35
2022-08-26T11:08:19.673Z,16.33
2022-08-26T11:10:58.011Z,16.58
2022-08-26T11:14:04.679Z,15.48
2022-08-26T11:16:43.589Z,11.57
2022-08-26T11:19:45.633Z,17.40
2022-08-26T11:22:36.347Z,18.08
2022-08-26T11:25:18.187Z,18.17
2022-08-26T11:27:47.990Z,18.58
2022-08-26T11:30:15.847Z,15.90
2022-08-26T11:32:55.477Z,17.30
2022-08-26T11:35:23.801Z,17.38
2022-08-26T11:40:25.590Z,19.73
2022-08-26T11:42:58.112Z,16.35
2022-08-26T11:45:38.688Z,21.23
2022-08-26T11:48:20.077Z,20.05
2022-08-26T11:50:54.598Z,18.38
2022-08-26T11:53:22.892Z,17.75
2022-08-26T11:55:51.132Z,19.02
2022-08-26T11:58:21.781Z,14.52
2022-08-26T12:00:52.853Z,23.52
2022-08-26T12:03:23.297Z,19.48
2022-08-26T12:05:53.259Z,21.17
2022-08-26T12:08:23.172Z,17.98
2022-08-26T12:11:09.655Z,21.83
2022-08-26T12:13:39.101Z,19.73
2022-08-26T12:16:06.288Z,17.67
2022-08-26T12:18:36.207Z,20.08
2022-08-26T12:21:22.724Z,18.85
2022-08-26T12:23:56.184Z,18.13
2022-08-26T12:26:24.595Z,17.45
2022-08-26T12:28:58.956Z,16.30
2022-08-26T12:31:34.769Z,17.35
2022-08-26T12:34:04.948Z,16.40
2022-08-26T12:36:48.194Z,16.60
2022-08-26T12:39:31.240Z,16.67
2022-08-26T12:41:58.919Z,17.55
2022-08-26T12:44:32.252Z,17.17
2022-08-26T12:47:04.543Z,15.90
2022-08-26T12:49:31.633Z,12.90
2022-08-26T12:51:58.284Z,14.90
2022-08-26T12:54:44.890Z,16.15
2022-08-26T12:57:12.609Z,16.38
2022-08-26T12:59:39.388Z,12.48
2022-08-26T13:02:06.149Z,14.10
2022-08-26T13:04:40.615Z,16.95
2022-08-26T13:07:33.804Z,15.35
2022-08-26T13:10:00.969Z,14.57
2022-08-26T13:12:28.991Z,14.73
2022-08-26T13:14:57.580Z,15.93
2022-08-26T13:17:25.668Z,16.23
2022-08-26T13:19:52.400Z,13.45
2022-08-26T13:22:23.029Z,15.60
2022-08-26T13:24:53.541Z,14.05
2022-08-26T13:27:22.018Z,15.45
2022-08-26T13:29:48.709Z,15.27
2022-08-26T13:32:15.313Z,13.48
2022-08-26T13:34:51.226Z,16.08
2022-08-26T13:37:22.193Z,13.60
2022-08-26T13:39:56.090Z,15.23
2022-08-26T13:42:22.890Z,15.15
2022-08-26T13:44:55.359Z,16.35
2022-08-26T13:47:22.888Z,16.70
2022-08-26T13:49:49.573Z,13.70
2022-08-26T13:52:16.754Z,17.45
2022-08-26T13:54:43.363Z,15.50
2022-08-26T13:57:09.980Z,14.75
2022-08-26T13:59:36.594Z,14.57
2022-08-26T14:02:03.951Z,13.95
2022-08-26T14:04:30.576Z,14.00
2022-08-26T14:06:57.277Z,12.85
2022-08-26T14:09:24.247Z,12.88
2022-08-26T14:11:54.624Z,13.63
2022-08-26T14:14:21.920Z,13.55
2022-08-26T14:16:59.830Z,13.05
2022-08-26T14:19:28.042Z,11.85
2022-08-26T14:21:54.651Z,11.68
2022-08-26T14:24:21.630Z,13.23
2022-08-26T14:26:48.579Z,11.95
2022-08-26T14:29:16.834Z,11.50
2022-08-26T14:31:43.961Z,12.68
2022-08-26T14:34:12.039Z,12.32
2022-08-26T14:36:39.064Z,10.35
2022-08-26T14:39:09.412Z,10.68
2022-08-26T14:41:41.804Z,10.88
2022-08-26T14:44:11.864Z,10.93
2022-08-26T14:46:48.658Z,11.10
2022-08-26T14:49:16.492Z,10.90
2022-08-26T14:51:43.304Z,10.68
2022-08-26T14:54:14.601Z,11.32
2022-08-26T14:56:51.382Z,10.40
2022-08-26T14:59:22.078Z,10.18
2022-08-26T15:01:48.939Z,11.02
2022-08-26T15:04:15.882Z,10.63
2022-08-26T15:06:42.549Z,9.95
2022-08-26T15:09:09.512Z,11.27
2022-08-26T15:11:36.236Z,10.15
2022-08-26T15:14:03.277Z,10.57
2022-08-26T15:16:30.047Z,9.85
2022-08-26T15:18:57.072Z,10.73
2022-08-26T15:23:52.990Z,10.77
2022-08-26T15:26:20.911Z,9.05
2022-08-26T15:28:47.829Z,9.88
2022-08-26T15:31:14.847Z,10.73
2022-08-26T15:33:41.624Z,11.63
2022-08-26T15:36:09.032Z,11.48
2022-08-26T15:38:41.480Z,11.65
2022-08-26T15:41:09.010Z,11.50
2022-08-26T15:43:38.884Z,10.68
2022-08-26T15:46:10.917Z,10.15
2022-08-26T15:48:38.469Z,10.40
2022-08-26T15:51:06.119Z,8.88
2022-08-26T15:53:34.001Z,9.48
2022-08-26T15:56:01.298Z,10.13
2022-08-26T15:58:29.746Z,8.05
2022-08-26T16:03:23.998Z,4.90
2022-08-26T16:05:50.784Z,4.40
2022-08-26T16:08:17.492Z,4.25
2022-08-26T16:10:50.356Z,3.60
2022-08-26T16:13:19.674Z,3.10
2022-08-26T16:15:47.658Z,3.20
2022-08-26T16:18:15.630Z,2.97
2022-08-26T16:21:12.470Z,3.10
2022-08-26T16:23:38.964Z,2.70
2022-08-26T16:26:14.127Z,3.25
2022-08-26T16:28:40.749Z,3.28
2022-08-26T16:31:08.356Z,4.20
2022-08-26T16:33:35.000Z,4.40
2022-08-26T16:36:01.629Z,4.88
2022-08-26T16:38:28.315Z,4.40
2022-08-26T16:40:54.888Z,4.10
2022-08-26T16:43:21.486Z,4.28
2022-08-26T16:45:48.154Z,4.80
2022-08-26T16:48:14.734Z,5.10
2022-08-26T16:50:42.065Z,5.30
2022-08-26T16:53:16.244Z,4.78
2022-08-26T16:55:50.208Z,5.38
2022-08-26T16:58:17.299Z,5.18
2022-08-26T17:00:45.234Z,5.28
2022-08-26T17:03:12.278Z,5.25
2022-08-26T17:05:40.294Z,5.43
2022-08-26T17:08:07.201Z,6.25
2022-08-26T17:10:34.144Z,7.72
2022-08-26T17:13:00.833Z,7.45
2022-08-26T17:15:27.606Z,7.03
2022-08-26T17:17:54.962Z,7.65
2022-08-26T17:20:23.151Z,7.93
2022-08-26T17:22:51.208Z,7.88
2022-08-26T17:25:22.019Z,7.13
2022-08-26T17:27:48.769Z,7.07
2022-08-26T17:30:16.631Z,8.32
2022-08-26T17:32:43.741Z,8.88
2022-08-26T17:35:11.695Z,8.88
2022-08-26T17:37:40.353Z,7.72
2022-08-26T17:40:10.020Z,7.13
2022-08-26T17:42:38.025Z,7.70
2022-08-26T17:45:05.044Z,8.25
2022-08-26T17:47:32.533Z,8.00
2022-08-26T17:50:00.894Z,8.23
2022-08-26T17:54:56.394Z,8.43
2022-08-26T17:57:23.834Z,8.30
2022-08-26T17:59:51.008Z,9.48
2022-08-26T18:02:19.702Z,8.88
2022-08-26T18:04:46.704Z,8.35
2022-08-26T18:07:13.344Z,9.13
2022-08-26T18:09:39.963Z,8.55
2022-08-26T18:12:06.925Z,7.22
2022-08-26T18:14:34.140Z,7.43
2022-08-26T18:17:01.345Z,7.22
2022-08-26T18:19:27.960Z,8.15
2022-08-26T18:21:54.554Z,7.68
2022-08-26T18:24:21.342Z,6.70
2022-08-26T18:26:51.066Z,7.20
2022-08-26T18:29:19.398Z,7.07
2022-08-26T18:31:46.567Z,6.72
2022-08-26T18:34:15.517Z,5.50
2022-08-26T18:36:43.798Z,6.35
2022-08-26T18:39:11.462Z,6.60
2022-08-26T18:41:53.177Z,5.60
2022-08-26T18:44:23.347Z,5.35
2022-08-26T18:46:51.617Z,5.60
2022-08-26T18:49:19.983Z,4.95
2022-08-26T18:54:14.119Z,4.60
2022-08-26T18:56:42.351Z,4.05
2022-08-26T18:59:09.554Z,4.13
2022-08-26T19:01:37.847Z,3.65
2022-08-26T19:06:33.308Z,3.00
2022-08-26T19:09:00.468Z,3.65
2022-08-26T19:11:32.535Z,3.47
2022-08-26T19:14:09.194Z,3.40
2022-08-26T19:16:37.445Z,3.22
2022-08-26T19:19:04.537Z,3.55
2022-08-26T19:21:33.160Z,2.97
2022-08-26T19:24:04.265Z,2.92
2022-08-26T19:26:31.747Z,3.05
2022-08-26T19:28:58.797Z,2.72
2022-08-26T19:31:25.735Z,3.17
2022-08-26T19:33:52.527Z,3.28
2022-08-26T19:36:22.505Z,3.63
2022-08-26T19:38:50.033Z,3.40
2022-08-26T19:41:19.264Z,3.27
2022-08-26T19:43:46.281Z,3.42
2022-08-26T19:46:18.792Z,3.05
2022-08-26T19:48:47.466Z,2.90
2022-08-26T19:51:24.464Z,3.63
2022-08-26T19:53:53.015Z,3.05
2022-08-26T19:56:20.775Z,3.33
2022-08-26T19:58:47.511Z,3.65
2022-08-26T20:01:15.113Z,3.28
2022-08-26T20:03:42.766Z,3.60
2022-08-26T20:06:11.192Z,3.90
2022-08-26T20:11:12.356Z,3.33
2022-08-26T20:13:39.357Z,3.92
2022-08-26T20:16:06.483Z,3.47
2022-08-26T20:18:51.716Z,3.50
2022-08-26T20:21:27.260Z,3.72
2022-08-26T20:24:00.706Z,4.15
2022-08-26T20:26:29.271Z,3.05
2022-08-26T20:28:56.512Z,3.35
2022-08-26T20:31:24.309Z,3.50
2022-08-26T20:33:51.618Z,3.60
2022-08-26T20:36:20.447Z,3.42
2022-08-26T20:38:47.919Z,3.55
2022-08-26T20:41:14.910Z,3.50
2022-08-26T20:43:42.864Z,3.33
2022-08-26T20:46:17.986Z,4.47
2022-08-26T20:48:47.463Z,3.50
2022-08-26T20:51:14.443Z,3.90
2022-08-26T20:53:41.421Z,4.00
2022-08-26T20:56:09.420Z,3.90
2022-08-26T20:58:36.524Z,3.63
2022-08-26T21:01:07.549Z,4.07
2022-08-26T21:03:35.934Z,3.80
2022-08-26T21:06:03.730Z,4.13
2022-08-26T21:08:33.249Z,3.60
2022-08-26T21:11:00.812Z,4.40
2022-08-26T21:13:33.036Z,5.07
2022-08-26T21:16:10.218Z,4.28
2022-08-26T21:18:37.048Z,4.85
2022-08-26T21:21:05.148Z,3.72
2022-08-26T21:23:32.117Z,4.22
2022-08-26T21:26:07.980Z,4.43
2022-08-26T21:28:36.290Z,4.20
2022-08-26T21:31:04.991Z,4.80
2022-08-26T21:33:31.733Z,4.60
2022-08-26T21:35:58.420Z,5.28
2022-08-26T21:38:25.123Z,5.75
2022-08-26T21:40:59.022Z,4.00
2022-08-26T21:43:35.503Z,4.35
2022-08-26T21:46:11.693Z,3.97
2022-08-26T21:48:40.389Z,5.13
2022-08-26T21:51:07.979Z,3.75
2022-08-26T21:53:35.640Z,4.73
2022-08-26T21:56:07.021Z,4.75
2022-08-26T21:58:34.535Z,4.97
2022-08-26T22:01:01.199Z,4.73
2022-08-26T22:03:28.172Z,5.47
2022-08-26T22:05:58.455Z,4.93
2022-08-26T22:08:28.040Z,5.30
2022-08-26T22:10:55.094Z,4.95
2022-08-26T22:13:28.940Z,5.43
2022-08-26T22:15:57.681Z,5.70
2022-08-26T22:18:28.917Z,5.85
2022-08-26T22:20:58.144Z,5.78
2022-08-26T22:23:24.928Z,5.32
2022-08-26T22:25:51.791Z,5.47
2022-08-26T22:28:18.476Z,5.40
2022-08-26T22:30:45.763Z,5.45
2022-08-26T22:33:13.192Z,6.50
2022-08-26T22:35:43.076Z,5.85
2022-08-26T22:38:09.816Z,6.30
2022-08-26T22:40:37.448Z,5.20
2022-08-26T22:43:05.703Z,6.82
2022-08-26T22:45:32.503Z,5.32
2022-08-26T22:48:01.655Z,5.53
2022-08-26T22:50:28.412Z,5.95
2022-08-26T22:52:55.040Z,6.15
2022-08-26T22:55:21.683Z,5.45
2022-08-26T22:57:48.317Z,5.50
2022-08-26T23:00:15.221Z,6.40
2022-08-26T23:02:42.240Z,5.03
2022-08-26T23:05:09.444Z,5.90
2022-08-26T23:07:36.579Z,5.80
2022-08-26T23:10:07.148Z,5.40
2022-08-26T23:12:36.501Z,5.18
2022-08-26T23:15:08.246Z,6.13
2022-08-26T23:17:35.692Z,5.18
2022-08-26T23:20:04.260Z,6.30
2022-08-26T23:22:31.429Z,5.85
2022-08-26T23:25:02.446Z,5.32
2022-08-26T23:27:36.348Z,5.25
2022-08-26T23:30:05.237Z,5.18
2022-08-26T23:32:31.837Z,5.60
2022-08-26T23:35:00.693Z,6.20
2022-08-26T23:37:36.001Z,5.82
2022-08-26T23:40:07.206Z,6.65
2022-08-26T23:42:36.149Z,6.80
2022-08-26T23:45:04.920Z,5.10
2022-08-26T23:47:31.536Z,4.93
2022-08-26T23:49:58.301Z,4.75
2022-08-26T23:52:43.568Z,4.53
2022-08-26T23:55:11.156Z,4.88
2022-08-26T23:57:38.061Z,5.07
